sensor_id;sensor_type;location;lat;lon;timestamp;P1;durP1;ratioP1;P2;durP2;ratioP2
47617;SDS011;33336;36.728;-4.414;2022-09-09T00:01:41;13.13;;;4.53;;
47617;SDS011;33336;36.728;-4.414;2022-09-09T00:06:55;12.23;;;4.13;;
47617;SDS011;33336;36.728;-4.414;2022-09-09T00:12:06;17.60;;;4.03;;
47617;SDS011;33336;36.728;-4.414;2022-09-09T00:17:18;11.50;;;3.55;;
47617;SDS011;33336;36.728;-4.414;2022-09-09T00:22:34;16.77;;;4.88;;
47617;SDS011;33336;36.728;-4.414;2022-09-09T00:27:41;12.88;;;3.20;;
47617;SDS011;33336;36.728;-4.414;2022-09-09T00:32:49;12.57;;;3.10;;
47617;SDS011;33336;36.728;-4.414;2022-09-09T00:38:00;15.20;;;3.30;;
47617;SDS011;33336;36.728;-4.414;2022-09-09T00:43:10;17.45;;;4.30;;
47617;SDS011;33336;36.728;-4.414;2022-09-09T00:48:29;18.85;;;3.78;;
47617;SDS011;33336;36.728;-4.414;2022-09-09T00:53:51;12.60;;;3.47;;
47617;SDS011;33336;36.728;-4.414;2022-09-09T00:59:16;14.10;;;3.72;;
47617;SDS011;33336;36.728;-4.414;2022-09-09T01:04:29;11.77;;;3.05;;
47617;SDS011;33336;36.728;-4.414;2022-09-09T01:09:38;11.48;;;2.95;;
47617;SDS011;33336;36.728;-4.414;2022-09-09T01:14:56;21.23;;;2.92;;
47617;SDS011;33336;36.728;-4.414;2022-09-09T01:20:13;17.05;;;3.83;;
47617;SDS011;33336;36.728;-4.414;2022-09-09T01:25:21;16.50;;;2.92;;
47617;SDS011;33336;36.728;-4.414;2022-09-09T01:30:31;14.23;;;3.22;;
47617;SDS011;33336;36.728;-4.414;2022-09-09T01:35:37;13.02;;;3.20;;
47617;SDS011;33336;36.728;-4.414;2022-09-09T01:40:45;16.02;;;3.65;;
47617;SDS011;33336;36.728;-4.414;2022-09-09T01:45:51;18.45;;;5.60;;
47617;SDS011;33336;36.728;-4.414;2022-09-09T01:50:58;10.50;;;3.10;;
47617;SDS011;33336;36.728;-4.414;2022-09-09T01:56:04;11.18;;;2.90;;
47617;SDS011;33336;36.728;-4.414;2022-09-09T02:01:18;13.38;;;3.58;;
47617;SDS011;33336;36.728;-4.414;2022-09-09T02:06:30;10.77;;;3.65;;
47617;SDS011;33336;36.728;-4.414;2022-09-09T02:11:38;27.83;;;4.32;;
47617;SDS011;33336;36.728;-4.414;2022-09-09T02:16:47;15.88;;;3.00;;
47617;SDS011;33336;36.728;-4.414;2022-09-09T02:21:55;8.40;;;3.15;;
47617;SDS011;33336;36.728;-4.414;2022-09-09T02:26:59;10.27;;;3.60;;
47617;SDS011;33336;36.728;-4.414;2022-09-09T02:32:10;14.23;;;3.42;;
47617;SDS011;33336;36.728;-4.414;2022-09-09T02:37:16;11.10;;;2.80;;
47617;SDS011;33336;36.728;-4.414;2022-09-09T02:42:22;18.70;;;3.97;;
47617;SDS011;33336;36.728;-4.414;2022-09-09T02:47:28;10.45;;;3.75;;
47617;SDS011;33336;36.728;-4.414;2022-09-09T02:52:38;13.18;;;3.58;;
47617;SDS011;33336;36.728;-4.414;2022-09-09T02:57:49;9.65;;;3.08;;
47617;SDS011;33336;36.728;-4.414;2022-09-09T03:02:55;7.55;;;3.25;;
47617;SDS011;33336;36.728;-4.414;2022-09-09T03:07:58;21.95;;;4.97;;
47617;SDS011;33336;36.728;-4.414;2022-09-09T03:13:01;7.95;;;2.92;;
47617;SDS011;33336;36.728;-4.414;2022-09-09T03:18:06;12.50;;;2.42;;
47617;SDS011;33336;36.728;-4.414;2022-09-09T03:23:09;11.27;;;3.22;;
47617;SDS011;33336;36.728;-4.414;2022-09-09T03:28:14;8.73;;;2.55;;
47617;SDS011;33336;36.728;-4.414;2022-09-09T03:33:19;8.23;;;2.97;;
47617;SDS011;33336;36.728;-4.414;2022-09-09T03:38:22;4.88;;;2.00;;
47617;SDS011;33336;36.728;-4.414;2022-09-09T03:43:26;7.30;;;2.28;;
47617;SDS011;33336;36.728;-4.414;2022-09-09T03:48:30;7.65;;;1.83;;
47617;SDS011;33336;36.728;-4.414;2022-09-09T03:53:33;4.72;;;2.42;;
47617;SDS011;33336;36.728;-4.414;2022-09-09T03:58:36;4.10;;;1.75;;
47617;SDS011;33336;36.728;-4.414;2022-09-09T04:03:42;7.43;;;2.30;;
47617;SDS011;33336;36.728;-4.414;2022-09-09T04:08:45;14.95;;;2.13;;
47617;SDS011;33336;36.728;-4.414;2022-09-09T04:13:49;6.55;;;1.50;;
47617;SDS011;33336;36.728;-4.414;2022-09-09T04:18:53;8.02;;;1.65;;
47617;SDS011;33336;36.728;-4.414;2022-09-09T04:23:57;13.43;;;2.70;;
47617;SDS011;33336;36.728;-4.414;2022-09-09T04:29:00;4.20;;;1.23;;
47617;SDS011;33336;36.728;-4.414;2022-09-09T04:34:05;4.07;;;1.50;;
47617;SDS011;33336;36.728;-4.414;2022-09-09T04:39:08;5.00;;;1.60;;
47617;SDS011;33336;36.728;-4.414;2022-09-09T04:44:11;3.83;;;1.65;;
47617;SDS011;33336;36.728;-4.414;2022-09-09T04:49:15;8.45;;;1.13;;
47617;SDS011;33336;36.728;-4.414;2022-09-09T04:54:18;10.93;;;0.82;;
47617;SDS011;33336;36.728;-4.414;2022-09-09T04:59:21;5.95;;;1.17;;
47617;SDS011;33336;36.728;-4.414;2022-09-09T05:04:26;3.13;;;1.17;;
47617;SDS011;33336;36.728;-4.414;2022-09-09T05:09:29;4.70;;;1.02;;
47617;SDS011;33336;36.728;-4.414;2022-09-09T05:14:32;9.00;;;2.17;;
47617;SDS011;33336;36.728;-4.414;2022-09-09T05:19:38;8.10;;;1.30;;
47617;SDS011;33336;36.728;-4.414;2022-09-09T05:24:41;5.32;;;2.08;;
47617;SDS011;33336;36.728;-4.414;2022-09-09T05:29:44;12.85;;;2.95;;
47617;SDS011;33336;36.728;-4.414;2022-09-09T05:34:50;8.00;;;2.65;;
47617;SDS011;33336;36.728;-4.414;2022-09-09T05:39:53;16.02;;;3.03;;
47617;SDS011;33336;36.728;-4.414;2022-09-09T05:44:57;9.52;;;2.88;;
47617;SDS011;33336;36.728;-4.414;2022-09-09T05:50:03;5.55;;;2.65;;
47617;SDS011;33336;36.728;-4.414;2022-09-09T05:55:07;15.07;;;2.47;;
47617;SDS011;33336;36.728;-4.414;2022-09-09T06:00:10;13.57;;;3.33;;
47617;SDS011;33336;36.728;-4.414;2022-09-09T06:05:18;12.32;;;2.58;;
47617;SDS011;33336;36.728;-4.414;2022-09-09T06:10:21;18.33;;;3.55;;
47617;SDS011;33336;36.728;-4.414;2022-09-09T06:15:25;27.05;;;4.03;;
47617;SDS011;33336;36.728;-4.414;2022-09-09T06:20:33;22.92;;;4.75;;
47617;SDS011;33336;36.728;-4.414;2022-09-09T06:25:36;28.52;;;5.68;;
47617;SDS011;33336;36.728;-4.414;2022-09-09T06:30:41;25.45;;;5.13;;
47617;SDS011;33336;36.728;-4.414;2022-09-09T06:35:52;19.27;;;4.47;;
47617;SDS011;33336;36.728;-4.414;2022-09-09T06:40:56;15.93;;;3.60;;
47617;SDS011;33336;36.728;-4.414;2022-09-09T06:46:01;17.75;;;4.20;;
47617;SDS011;33336;36.728;-4.414;2022-09-09T06:51:06;20.13;;;3.67;;
47617;SDS011;33336;36.728;-4.414;2022-09-09T06:56:17;22.98;;;4.07;;
47617;SDS011;33336;36.728;-4.414;2022-09-09T07:01:24;26.95;;;3.83;;
47617;SDS011;33336;36.728;-4.414;2022-09-09T07:06:31;30.55;;;4.35;;
47617;SDS011;33336;36.728;-4.414;2022-09-09T07:11:37;20.70;;;4.03;;
47617;SDS011;33336;36.728;-4.414;2022-09-09T07:16:42;17.83;;;3.47;;
47617;SDS011;33336;36.728;-4.414;2022-09-09T07:21:48;21.25;;;3.75;;
47617;SDS011;33336;36.728;-4.414;2022-09-09T07:26:52;11.95;;;3.28;;
47617;SDS011;33336;36.728;-4.414;2022-09-09T07:31:55;22.27;;;4.50;;
47617;SDS011;33336;36.728;-4.414;2022-09-09T07:37:00;16.98;;;3.47;;
47617;SDS011;33336;36.728;-4.414;2022-09-09T07:42:03;16.95;;;3.58;;
47617;SDS011;33336;36.728;-4.414;2022-09-09T07:47:08;23.25;;;4.10;;
47617;SDS011;33336;36.728;-4.414;2022-09-09T07:52:12;16.65;;;3.40;;
47617;SDS011;33336;36.728;-4.414;2022-09-09T07:57:15;17.42;;;3.70;;
47617;SDS011;33336;36.728;-4.414;2022-09-09T08:02:18;21.38;;;3.65;;
47617;SDS011;33336;36.728;-4.414;2022-09-09T08:07:22;12.38;;;2.85;;
47617;SDS011;33336;36.728;-4.414;2022-09-09T08:12:25;11.93;;;2.95;;
47617;SDS011;33336;36.728;-4.414;2022-09-09T08:17:28;16.70;;;3.85;;
47617;SDS011;33336;36.728;-4.414;2022-09-09T08:22:33;16.50;;;3.58;;
47617;SDS011;33336;36.728;-4.414;2022-09-09T08:27:38;10.35;;;3.08;;
47617;SDS011;33336;36.728;-4.414;2022-09-09T08:32:41;12.57;;;3.55;;
47617;SDS011;33336;36.728;-4.414;2022-09-09T08:37:45;13.48;;;3.40;;
47617;SDS011;33336;36.728;-4.414;2022-09-09T08:42:48;24.00;;;3.25;;
47617;SDS011;33336;36.728;-4.414;2022-09-09T08:48:01;17.85;;;3.58;;
47617;SDS011;33336;36.728;-4.414;2022-09-09T08:53:18;15.27;;;3.92;;
47617;SDS011;33336;36.728;-4.414;2022-09-09T08:58:25;20.92;;;4.30;;
47617;SDS011;33336;36.728;-4.414;2022-09-09T09:03:32;12.02;;;2.95;;
47617;SDS011;33336;36.728;-4.414;2022-09-09T09:08:46;13.50;;;3.20;;
47617;SDS011;33336;36.728;-4.414;2022-09-09T09:13:57;16.38;;;3.78;;
47617;SDS011;33336;36.728;-4.414;2022-09-09T09:19:04;9.32;;;3.20;;
47617;SDS011;33336;36.728;-4.414;2022-09-09T09:24:15;16.30;;;4.07;;
47617;SDS011;33336;36.728;-4.414;2022-09-09T09:29:23;11.55;;;2.95;;
47617;SDS011;33336;36.728;-4.414;2022-09-09T09:34:27;17.92;;;3.28;;
47617;SDS011;33336;36.728;-4.414;2022-09-09T09:39:33;15.73;;;3.63;;
47617;SDS011;33336;36.728;-4.414;2022-09-09T09:44:39;9.65;;;2.65;;
47617;SDS011;33336;36.728;-4.414;2022-09-09T09:49:51;11.13;;;2.80;;
47617;SDS011;33336;36.728;-4.414;2022-09-09T09:54:56;10.52;;;3.10;;
47617;SDS011;33336;36.728;-4.414;2022-09-09T10:00:03;22.05;;;3.55;;
47617;SDS011;33336;36.728;-4.414;2022-09-09T10:05:15;15.07;;;2.83;;
47617;SDS011;33336;36.728;-4.414;2022-09-09T10:10:21;13.77;;;2.90;;
47617;SDS011;33336;36.728;-4.414;2022-09-09T10:15:31;14.60;;;2.63;;
47617;SDS011;33336;36.728;-4.414;2022-09-09T10:20:44;15.98;;;3.10;;
47617;SDS011;33336;36.728;-4.414;2022-09-09T10:25:58;10.68;;;2.50;;
47617;SDS011;33336;36.728;-4.414;2022-09-09T10:31:14;11.07;;;2.38;;
47617;SDS011;33336;36.728;-4.414;2022-09-09T10:36:22;14.35;;;2.08;;
47617;SDS011;33336;36.728;-4.414;2022-09-09T10:41:42;14.15;;;2.40;;
47617;SDS011;33336;36.728;-4.414;2022-09-09T10:46:54;9.65;;;2.15;;
47617;SDS011;33336;36.728;-4.414;2022-09-09T10:52:09;7.28;;;1.80;;
47617;SDS011;33336;36.728;-4.414;2022-09-09T10:57:21;12.73;;;2.05;;
47617;SDS011;33336;36.728;-4.414;2022-09-09T11:02:29;10.02;;;2.88;;
47617;SDS011;33336;36.728;-4.414;2022-09-09T11:07:35;5.57;;;1.63;;
47617;SDS011;33336;36.728;-4.414;2022-09-09T11:12:42;10.80;;;2.17;;
47617;SDS011;33336;36.728;-4.414;2022-09-09T11:17:50;5.20;;;1.55;;
47617;SDS011;33336;36.728;-4.414;2022-09-09T11:22:58;8.43;;;2.45;;
47617;SDS011;33336;36.728;-4.414;2022-09-09T11:28:11;6.57;;;1.92;;
47617;SDS011;33336;36.728;-4.414;2022-09-09T11:33:32;9.68;;;2.13;;
47617;SDS011;33336;36.728;-4.414;2022-09-09T11:38:50;11.27;;;2.08;;
47617;SDS011;33336;36.728;-4.414;2022-09-09T11:43:56;8.20;;;1.88;;
47617;SDS011;33336;36.728;-4.414;2022-09-09T11:49:00;9.25;;;2.08;;
47617;SDS011;33336;36.728;-4.414;2022-09-09T11:59:32;10.20;;;2.63;;
47617;SDS011;33336;36.728;-4.414;2022-09-09T12:04:37;7.72;;;2.08;;
47617;SDS011;33336;36.728;-4.414;2022-09-09T12:09:45;11.63;;;2.53;;
47617;SDS011;33336;36.728;-4.414;2022-09-09T12:14:59;10.95;;;2.22;;
47617;SDS011;33336;36.728;-4.414;2022-09-09T12:20:22;10.50;;;3.03;;
47617;SDS011;33336;36.728;-4.414;2022-09-09T12:25:30;14.13;;;4.07;;
47617;SDS011;33336;36.728;-4.414;2022-09-09T12:30:53;9.55;;;2.75;;
47617;SDS011;33336;36.728;-4.414;2022-09-09T12:36:03;13.55;;;3.50;;
47617;SDS011;33336;36.728;-4.414;2022-09-09T12:41:15;16.27;;;3.15;;
47617;SDS011;33336;36.728;-4.414;2022-09-09T12:46:25;11.93;;;2.90;;
47617;SDS011;33336;36.728;-4.414;2022-09-09T12:51:33;13.60;;;3.25;;
47617;SDS011;33336;36.728;-4.414;2022-09-09T12:56:38;8.95;;;2.78;;
47617;SDS011;33336;36.728;-4.414;2022-09-09T13:01:42;9.90;;;2.22;;
47617;SDS011;33336;36.728;-4.414;2022-09-09T13:06:45;10.15;;;3.15;;
47617;SDS011;33336;36.728;-4.414;2022-09-09T13:11:48;16.70;;;3.45;;
47617;SDS011;33336;36.728;-4.414;2022-09-09T13:16:58;10.75;;;2.80;;
47617;SDS011;33336;36.728;-4.414;2022-09-09T13:22:11;12.60;;;2.67;;
47617;SDS011;33336;36.728;-4.414;2022-09-09T13:27:23;14.38;;;3.00;;
47617;SDS011;33336;36.728;-4.414;2022-09-09T13:32:31;12.73;;;2.65;;
47617;SDS011;33336;36.728;-4.414;2022-09-09T13:37:36;8.80;;;2.53;;
47617;SDS011;33336;36.728;-4.414;2022-09-09T13:42:39;8.05;;;2.05;;
47617;SDS011;33336;36.728;-4.414;2022-09-09T13:47:45;8.25;;;2.47;;
47617;SDS011;33336;36.728;-4.414;2022-09-09T13:52:53;10.70;;;3.40;;
47617;SDS011;33336;36.728;-4.414;2022-09-09T13:58:00;7.80;;;2.75;;
47617;SDS011;33336;36.728;-4.414;2022-09-09T14:03:04;8.88;;;2.40;;
47617;SDS011;33336;36.728;-4.414;2022-09-09T14:08:09;12.38;;;2.85;;
47617;SDS011;33336;36.728;-4.414;2022-09-09T14:13:22;8.15;;;1.70;;
47617;SDS011;33336;36.728;-4.414;2022-09-09T14:18:27;12.25;;;2.75;;
47617;SDS011;33336;36.728;-4.414;2022-09-09T14:23:30;17.20;;;3.83;;
47617;SDS011;33336;36.728;-4.414;2022-09-09T14:28:35;10.20;;;2.67;;
47617;SDS011;33336;36.728;-4.414;2022-09-09T14:33:40;11.77;;;3.13;;
47617;SDS011;33336;36.728;-4.414;2022-09-09T14:38:43;10.60;;;3.35;;
47617;SDS011;33336;36.728;-4.414;2022-09-09T14:43:46;11.95;;;3.30;;
47617;SDS011;33336;36.728;-4.414;2022-09-09T14:48:50;9.40;;;3.15;;
47617;SDS011;33336;36.728;-4.414;2022-09-09T14:53:53;12.57;;;3.38;;
47617;SDS011;33336;36.728;-4.414;2022-09-09T14:58:58;11.32;;;3.15;;
47617;SDS011;33336;36.728;-4.414;2022-09-09T15:04:05;11.07;;;3.47;;
47617;SDS011;33336;36.728;-4.414;2022-09-09T15:09:08;9.35;;;2.80;;
47617;SDS011;33336;36.728;-4.414;2022-09-09T15:14:12;8.13;;;2.40;;
47617;SDS011;33336;36.728;-4.414;2022-09-09T15:19:16;10.77;;;2.97;;
47617;SDS011;33336;36.728;-4.414;2022-09-09T15:24:19;9.48;;;2.00;;
47617;SDS011;33336;36.728;-4.414;2022-09-09T15:29:22;8.95;;;2.42;;
47617;SDS011;33336;36.728;-4.414;2022-09-09T15:34:27;6.60;;;2.05;;
47617;SDS011;33336;36.728;-4.414;2022-09-09T15:39:30;11.57;;;2.15;;
47617;SDS011;33336;36.728;-4.414;2022-09-09T15:44:38;8.32;;;1.98;;
47617;SDS011;33336;36.728;-4.414;2022-09-09T15:49:44;5.03;;;1.52;;
47617;SDS011;33336;36.728;-4.414;2022-09-09T15:54:47;6.55;;;1.70;;
47617;SDS011;33336;36.728;-4.414;2022-09-09T15:59:50;3.13;;;1.47;;
47617;SDS011;33336;36.728;-4.414;2022-09-09T16:04:54;8.23;;;1.30;;
47617;SDS011;33336;36.728;-4.414;2022-09-09T16:09:57;3.88;;;1.85;;
47617;SDS011;33336;36.728;-4.414;2022-09-09T16:15:00;7.75;;;1.88;;
47617;SDS011;33336;36.728;-4.414;2022-09-09T16:25:09;4.60;;;1.58;;
47617;SDS011;33336;36.728;-4.414;2022-09-09T16:30:12;6.57;;;1.70;;
47617;SDS011;33336;36.728;-4.414;2022-09-09T16:35:17;6.65;;;2.85;;
47617;SDS011;33336;36.728;-4.414;2022-09-09T16:40:21;5.80;;;1.83;;
47617;SDS011;33336;36.728;-4.414;2022-09-09T16:45:24;6.57;;;2.30;;
47617;SDS011;33336;36.728;-4.414;2022-09-09T16:50:28;8.50;;;2.65;;
47617;SDS011;33336;36.728;-4.414;2022-09-09T16:55:33;7.30;;;2.10;;
47617;SDS011;33336;36.728;-4.414;2022-09-09T17:00:40;5.03;;;2.00;;
47617;SDS011;33336;36.728;-4.414;2022-09-09T17:05:45;6.57;;;2.20;;
47617;SDS011;33336;36.728;-4.414;2022-09-09T17:10:48;8.15;;;2.70;;
47617;SDS011;33336;36.728;-4.414;2022-09-09T17:15:52;7.05;;;2.85;;
47617;SDS011;33336;36.728;-4.414;2022-09-09T17:21:01;7.15;;;2.60;;
47617;SDS011;33336;36.728;-4.414;2022-09-09T17:26:08;9.27;;;2.70;;
47617;SDS011;33336;36.728;-4.414;2022-09-09T17:31:15;8.45;;;2.55;;
47617;SDS011;33336;36.728;-4.414;2022-09-09T17:36:22;12.23;;;2.30;;
47617;SDS011;33336;36.728;-4.414;2022-09-09T17:41:27;10.10;;;2.38;;
47617;SDS011;33336;36.728;-4.414;2022-09-09T17:46:33;9.70;;;1.95;;
47617;SDS011;33336;36.728;-4.414;2022-09-09T17:51:38;6.38;;;2.47;;
47617;SDS011;33336;36.728;-4.414;2022-09-09T17:56:44;12.10;;;2.83;;
47617;SDS011;33336;36.728;-4.414;2022-09-09T18:01:48;9.32;;;3.05;;
47617;SDS011;33336;36.728;-4.414;2022-09-09T18:11:59;10.00;;;2.92;;
47617;SDS011;33336;36.728;-4.414;2022-09-09T18:17:03;7.93;;;2.90;;
47617;SDS011;33336;36.728;-4.414;2022-09-09T18:22:07;9.20;;;2.70;;
47617;SDS011;33336;36.728;-4.414;2022-09-09T18:27:10;6.75;;;2.10;;
47617;SDS011;33336;36.728;-4.414;2022-09-09T18:32:13;11.10;;;2.40;;
47617;SDS011;33336;36.728;-4.414;2022-09-09T18:37:18;10.23;;;3.65;;
47617;SDS011;33336;36.728;-4.414;2022-09-09T18:42:21;6.95;;;2.60;;
47617;SDS011;33336;36.728;-4.414;2022-09-09T18:47:24;11.10;;;2.88;;
47617;SDS011;33336;36.728;-4.414;2022-09-09T18:52:28;12.13;;;3.40;;
47617;SDS011;33336;36.728;-4.414;2022-09-09T18:57:31;10.27;;;3.25;;
47617;SDS011;33336;36.728;-4.414;2022-09-09T19:02:34;13.73;;;3.75;;
47617;SDS011;33336;36.728;-4.414;2022-09-09T19:07:38;14.38;;;3.75;;
47617;SDS011;33336;36.728;-4.414;2022-09-09T19:12:41;8.55;;;2.92;;
47617;SDS011;33336;36.728;-4.414;2022-09-09T19:17:44;10.73;;;3.58;;
47617;SDS011;33336;36.728;-4.414;2022-09-09T19:22:48;9.77;;;2.50;;
47617;SDS011;33336;36.728;-4.414;2022-09-09T19:27:51;14.30;;;3.53;;
47617;SDS011;33336;36.728;-4.414;2022-09-09T19:32:54;12.90;;;3.05;;
47617;SDS011;33336;36.728;-4.414;2022-09-09T19:38:00;8.52;;;2.67;;
47617;SDS011;33336;36.728;-4.414;2022-09-09T19:43:03;11.82;;;3.00;;
47617;SDS011;33336;36.728;-4.414;2022-09-09T19:48:07;9.60;;;3.65;;
47617;SDS011;33336;36.728;-4.414;2022-09-09T19:53:11;8.70;;;2.88;;
47617;SDS011;33336;36.728;-4.414;2022-09-09T19:58:15;9.85;;;2.83;;
47617;SDS011;33336;36.728;-4.414;2022-09-09T20:03:18;11.10;;;3.50;;
47617;SDS011;33336;36.728;-4.414;2022-09-09T20:08:22;8.43;;;3.03;;
47617;SDS011;33336;36.728;-4.414;2022-09-09T20:13:27;9.63;;;2.75;;
47617;SDS011;33336;36.728;-4.414;2022-09-09T20:18:31;10.07;;;3.05;;
47617;SDS011;33336;36.728;-4.414;2022-09-09T20:23:36;13.02;;;3.95;;
47617;SDS011;33336;36.728;-4.414;2022-09-09T20:28:40;12.13;;;3.10;;
47617;SDS011;33336;36.728;-4.414;2022-09-09T20:33:43;12.73;;;3.58;;
47617;SDS011;33336;36.728;-4.414;2022-09-09T20:38:49;9.07;;;2.60;;
47617;SDS011;33336;36.728;-4.414;2022-09-09T20:43:53;19.58;;;3.60;;
47617;SDS011;33336;36.728;-4.414;2022-09-09T20:48:59;13.93;;;3.97;;
47617;SDS011;33336;36.728;-4.414;2022-09-09T20:54:04;15.43;;;2.90;;
47617;SDS011;33336;36.728;-4.414;2022-09-09T20:59:10;7.00;;;2.80;;
47617;SDS011;33336;36.728;-4.414;2022-09-09T21:04:14;14.77;;;3.27;;
47617;SDS011;33336;36.728;-4.414;2022-09-09T21:09:20;16.17;;;8.52;;
47617;SDS011;33336;36.728;-4.414;2022-09-09T21:14:24;11.00;;;3.17;;
47617;SDS011;33336;36.728;-4.414;2022-09-09T21:19:28;10.10;;;2.95;;
47617;SDS011;33336;36.728;-4.414;2022-09-09T21:24:32;9.95;;;2.85;;
47617;SDS011;33336;36.728;-4.414;2022-09-09T21:29:35;9.38;;;2.95;;
47617;SDS011;33336;36.728;-4.414;2022-09-09T21:34:38;14.98;;;4.05;;
47617;SDS011;33336;36.728;-4.414;2022-09-09T21:39:44;6.20;;;3.88;;
47617;SDS011;33336;36.728;-4.414;2022-09-09T21:44:48;16.20;;;4.38;;
47617;SDS011;33336;36.728;-4.414;2022-09-09T21:49:51;12.77;;;4.70;;
47617;SDS011;33336;36.728;-4.414;2022-09-09T21:54:55;12.02;;;3.67;;
47617;SDS011;33336;36.728;-4.414;2022-09-09T21:59:59;7.80;;;3.22;;
47617;SDS011;33336;36.728;-4.414;2022-09-09T22:05:02;12.32;;;3.72;;
47617;SDS011;33336;36.728;-4.414;2022-09-09T22:10:08;12.80;;;5.43;;
47617;SDS011;33336;36.728;-4.414;2022-09-09T22:15:12;15.40;;;4.80;;
47617;SDS011;33336;36.728;-4.414;2022-09-09T22:20:16;9.85;;;4.30;;
47617;SDS011;33336;36.728;-4.414;2022-09-09T22:25:20;12.05;;;3.90;;
47617;SDS011;33336;36.728;-4.414;2022-09-09T22:30:23;11.52;;;4.07;;
47617;SDS011;33336;36.728;-4.414;2022-09-09T22:35:26;13.25;;;4.05;;
47617;SDS011;33336;36.728;-4.414;2022-09-09T22:40:31;7.82;;;3.63;;
47617;SDS011;33336;36.728;-4.414;2022-09-09T22:45:38;11.90;;;3.28;;
47617;SDS011;33336;36.728;-4.414;2022-09-09T22:50:41;14.25;;;2.80;;
47617;SDS011;33336;36.728;-4.414;2022-09-09T22:55:55;14.52;;;4.47;;
47617;SDS011;33336;36.728;-4.414;2022-09-09T23:00:59;10.63;;;3.78;;
47617;SDS011;33336;36.728;-4.414;2022-09-09T23:06:02;15.23;;;4.15;;
47617;SDS011;33336;36.728;-4.414;2022-09-09T23:11:07;11.48;;;3.53;;
47617;SDS011;33336;36.728;-4.414;2022-09-09T23:16:14;9.95;;;4.13;;
47617;SDS011;33336;36.728;-4.414;2022-09-09T23:21:18;11.85;;;3.15;;
47617;SDS011;33336;36.728;-4.414;2022-09-09T23:26:24;12.50;;;3.80;;
47617;SDS011;33336;36.728;-4.414;2022-09-09T23:31:29;10.32;;;2.72;;
47617;SDS011;33336;36.728;-4.414;2022-09-09T23:36:38;8.80;;;3.28;;
47617;SDS011;33336;36.728;-4.414;2022-09-09T23:41:43;10.45;;;4.00;;
47617;SDS011;33336;36.728;-4.414;2022-09-09T23:46:47;13.45;;;4.05;;
47617;SDS011;33336;36.728;-4.414;2022-09-09T23:51:49;12.88;;;4.13;;
47617;SDS011;33336;36.728;-4.414;2022-09-09T23:56:54;8.23;;;3.13;;
